sensor_id;sensor_type;location;lat;lon;timestamp;P1;durP1;ratioP1;P2;durP2;ratioP2
6223;SDS011;3145;42.726;23.342;2023-01-29T00:01:48;19.30;;;14.40;;
6223;SDS011;3145;42.726;23.342;2023-01-29T00:04:15;20.27;;;14.80;;
6223;SDS011;3145;42.726;23.342;2023-01-29T00:06:43;18.90;;;13.97;;
6223;SDS011;3145;42.726;23.342;2023-01-29T00:09:10;18.53;;;13.87;;
6223;SDS011;3145;42.726;23.342;2023-01-29T00:11:37;23.20;;;17.23;;
6223;SDS011;3145;42.726;23.342;2023-01-29T00:14:04;20.63;;;16.87;;
6223;SDS011;3145;42.726;23.342;2023-01-29T00:16:31;21.07;;;16.43;;
6223;SDS011;3145;42.726;23.342;2023-01-29T00:18:59;23.17;;;16.90;;
6223;SDS011;3145;42.726;23.342;2023-01-29T00:21:26;21.97;;;16.40;;
6223;SDS011;3145;42.726;23.342;2023-01-29T00:23:54;26.50;;;18.00;;
6223;SDS011;3145;42.726;23.342;2023-01-29T00:26:21;22.23;;;16.07;;
6223;SDS011;3145;42.726;23.342;2023-01-29T00:28:48;25.70;;;17.43;;
6223;SDS011;3145;42.726;23.342;2023-01-29T00:31:15;31.17;;;20.23;;
6223;SDS011;3145;42.726;23.342;2023-01-29T00:33:43;20.87;;;16.17;;
6223;SDS011;3145;42.726;23.342;2023-01-29T00:36:10;25.67;;;17.30;;
6223;SDS011;3145;42.726;23.342;2023-01-29T00:38:39;18.07;;;15.33;;
6223;SDS011;3145;42.726;23.342;2023-01-29T00:41:07;18.40;;;15.13;;
6223;SDS011;3145;42.726;23.342;2023-01-29T00:43:52;18.53;;;15.60;;
6223;SDS011;3145;42.726;23.342;2023-01-29T00:46:36;22.80;;;15.33;;
6223;SDS011;3145;42.726;23.342;2023-01-29T00:49:03;20.27;;;15.23;;
6223;SDS011;3145;42.726;23.342;2023-01-29T00:51:30;18.50;;;15.80;;
6223;SDS011;3145;42.726;23.342;2023-01-29T00:53:57;17.93;;;14.73;;
6223;SDS011;3145;42.726;23.342;2023-01-29T00:56:26;17.13;;;14.17;;
6223;SDS011;3145;42.726;23.342;2023-01-29T00:58:54;17.03;;;15.30;;
6223;SDS011;3145;42.726;23.342;2023-01-29T01:01:21;19.83;;;14.90;;
6223;SDS011;3145;42.726;23.342;2023-01-29T01:04:02;20.87;;;15.10;;
6223;SDS011;3145;42.726;23.342;2023-01-29T01:06:29;22.50;;;16.53;;
6223;SDS011;3145;42.726;23.342;2023-01-29T01:08:56;19.77;;;15.20;;
6223;SDS011;3145;42.726;23.342;2023-01-29T01:11:42;19.10;;;14.70;;
6223;SDS011;3145;42.726;23.342;2023-01-29T01:14:09;17.83;;;14.73;;
6223;SDS011;3145;42.726;23.342;2023-01-29T01:16:35;17.10;;;14.47;;
6223;SDS011;3145;42.726;23.342;2023-01-29T01:19:02;17.47;;;15.20;;
6223;SDS011;3145;42.726;23.342;2023-01-29T01:21:29;18.53;;;13.80;;
6223;SDS011;3145;42.726;23.342;2023-01-29T01:23:56;18.87;;;13.40;;
6223;SDS011;3145;42.726;23.342;2023-01-29T01:26:22;22.27;;;15.30;;
6223;SDS011;3145;42.726;23.342;2023-01-29T01:28:51;19.27;;;15.50;;
6223;SDS011;3145;42.726;23.342;2023-01-29T01:31:18;20.03;;;15.53;;
6223;SDS011;3145;42.726;23.342;2023-01-29T01:33:44;19.47;;;14.83;;
6223;SDS011;3145;42.726;23.342;2023-01-29T01:36:11;16.20;;;14.10;;
6223;SDS011;3145;42.726;23.342;2023-01-29T01:38:38;18.30;;;14.07;;
6223;SDS011;3145;42.726;23.342;2023-01-29T01:41:08;17.80;;;14.70;;
6223;SDS011;3145;42.726;23.342;2023-01-29T01:43:46;16.73;;;14.37;;
6223;SDS011;3145;42.726;23.342;2023-01-29T01:46:15;25.37;;;16.97;;
6223;SDS011;3145;42.726;23.342;2023-01-29T01:48:42;22.03;;;15.47;;
6223;SDS011;3145;42.726;23.342;2023-01-29T01:51:10;18.27;;;14.87;;
6223;SDS011;3145;42.726;23.342;2023-01-29T01:53:39;23.60;;;17.67;;
6223;SDS011;3145;42.726;23.342;2023-01-29T01:56:10;26.73;;;17.60;;
6223;SDS011;3145;42.726;23.342;2023-01-29T01:58:39;20.90;;;16.00;;
6223;SDS011;3145;42.726;23.342;2023-01-29T02:01:11;20.67;;;15.37;;
6223;SDS011;3145;42.726;23.342;2023-01-29T02:03:40;19.70;;;14.63;;
6223;SDS011;3145;42.726;23.342;2023-01-29T02:06:27;18.10;;;14.20;;
6223;SDS011;3145;42.726;23.342;2023-01-29T02:09:12;18.27;;;14.70;;
6223;SDS011;3145;42.726;23.342;2023-01-29T02:11:59;17.43;;;14.47;;
6223;SDS011;3145;42.726;23.342;2023-01-29T02:14:27;23.10;;;15.63;;
6223;SDS011;3145;42.726;23.342;2023-01-29T02:16:54;22.47;;;15.27;;
6223;SDS011;3145;42.726;23.342;2023-01-29T02:19:23;21.37;;;15.17;;
6223;SDS011;3145;42.726;23.342;2023-01-29T02:30:58;21.13;;;14.77;;
6223;SDS011;3145;42.726;23.342;2023-01-29T02:33:34;17.63;;;14.63;;
6223;SDS011;3145;42.726;23.342;2023-01-29T02:36:11;24.13;;;13.93;;
6223;SDS011;3145;42.726;23.342;2023-01-29T02:38:46;18.60;;;14.43;;
6223;SDS011;3145;42.726;23.342;2023-01-29T02:41:22;18.23;;;13.93;;
6223;SDS011;3145;42.726;23.342;2023-01-29T02:43:54;17.20;;;14.10;;
6223;SDS011;3145;42.726;23.342;2023-01-29T02:46:31;16.60;;;14.20;;
6223;SDS011;3145;42.726;23.342;2023-01-29T02:49:04;17.70;;;13.43;;
6223;SDS011;3145;42.726;23.342;2023-01-29T02:51:37;17.03;;;13.13;;
6223;SDS011;3145;42.726;23.342;2023-01-29T02:54:11;17.33;;;14.53;;
6223;SDS011;3145;42.726;23.342;2023-01-29T02:56:44;15.23;;;13.27;;
6223;SDS011;3145;42.726;23.342;2023-01-29T02:59:17;22.53;;;16.33;;
6223;SDS011;3145;42.726;23.342;2023-01-29T03:01:49;19.60;;;15.67;;
6223;SDS011;3145;42.726;23.342;2023-01-29T03:04:20;16.20;;;14.00;;
6223;SDS011;3145;42.726;23.342;2023-01-29T03:06:50;18.67;;;14.47;;
6223;SDS011;3145;42.726;23.342;2023-01-29T03:09:23;18.00;;;14.57;;
6223;SDS011;3145;42.726;23.342;2023-01-29T03:11:56;17.43;;;14.37;;
6223;SDS011;3145;42.726;23.342;2023-01-29T03:14:43;15.63;;;13.77;;
6223;SDS011;3145;42.726;23.342;2023-01-29T03:17:29;17.60;;;15.23;;
6223;SDS011;3145;42.726;23.342;2023-01-29T03:20:02;16.77;;;14.23;;
6223;SDS011;3145;42.726;23.342;2023-01-29T03:22:37;17.73;;;14.53;;
6223;SDS011;3145;42.726;23.342;2023-01-29T03:25:06;16.33;;;13.30;;
6223;SDS011;3145;42.726;23.342;2023-01-29T03:27:52;16.37;;;13.77;;
6223;SDS011;3145;42.726;23.342;2023-01-29T03:30:40;19.30;;;14.80;;
6223;SDS011;3145;42.726;23.342;2023-01-29T03:33:30;17.33;;;14.27;;
6223;SDS011;3145;42.726;23.342;2023-01-29T03:36:05;14.77;;;13.07;;
6223;SDS011;3145;42.726;23.342;2023-01-29T03:38:35;14.23;;;12.77;;
6223;SDS011;3145;42.726;23.342;2023-01-29T03:41:04;14.40;;;12.97;;
6223;SDS011;3145;42.726;23.342;2023-01-29T03:43:37;15.57;;;12.47;;
6223;SDS011;3145;42.726;23.342;2023-01-29T03:46:10;15.37;;;13.03;;
6223;SDS011;3145;42.726;23.342;2023-01-29T03:48:49;18.37;;;13.53;;
6223;SDS011;3145;42.726;23.342;2023-01-29T03:51:21;14.00;;;12.57;;
6223;SDS011;3145;42.726;23.342;2023-01-29T03:53:57;15.73;;;14.03;;
6223;SDS011;3145;42.726;23.342;2023-01-29T03:56:33;14.50;;;13.10;;
6223;SDS011;3145;42.726;23.342;2023-01-29T03:59:12;14.43;;;12.67;;
6223;SDS011;3145;42.726;23.342;2023-01-29T04:01:46;15.47;;;13.43;;
6223;SDS011;3145;42.726;23.342;2023-01-29T04:04:19;15.10;;;13.63;;
6223;SDS011;3145;42.726;23.342;2023-01-29T04:06:50;14.80;;;13.23;;
6223;SDS011;3145;42.726;23.342;2023-01-29T04:09:21;14.77;;;12.23;;
6223;SDS011;3145;42.726;23.342;2023-01-29T04:11:54;15.67;;;13.80;;
6223;SDS011;3145;42.726;23.342;2023-01-29T04:14:26;17.70;;;14.70;;
6223;SDS011;3145;42.726;23.342;2023-01-29T04:16:54;13.30;;;11.97;;
6223;SDS011;3145;42.726;23.342;2023-01-29T04:19:26;14.67;;;13.17;;
6223;SDS011;3145;42.726;23.342;2023-01-29T04:21:56;13.87;;;12.47;;
6223;SDS011;3145;42.726;23.342;2023-01-29T04:24:29;16.40;;;13.43;;
6223;SDS011;3145;42.726;23.342;2023-01-29T04:26:57;13.80;;;12.40;;
6223;SDS011;3145;42.726;23.342;2023-01-29T04:29:39;14.40;;;12.83;;
6223;SDS011;3145;42.726;23.342;2023-01-29T04:32:15;13.37;;;11.97;;
6223;SDS011;3145;42.726;23.342;2023-01-29T04:34:53;13.83;;;12.03;;
6223;SDS011;3145;42.726;23.342;2023-01-29T04:37:29;13.20;;;11.83;;
6223;SDS011;3145;42.726;23.342;2023-01-29T04:40:03;14.47;;;12.97;;
6223;SDS011;3145;42.726;23.342;2023-01-29T04:42:40;13.07;;;11.83;;
6223;SDS011;3145;42.726;23.342;2023-01-29T04:45:15;14.93;;;13.00;;
6223;SDS011;3145;42.726;23.342;2023-01-29T04:47:49;13.33;;;11.77;;
6223;SDS011;3145;42.726;23.342;2023-01-29T04:50:30;16.13;;;13.47;;
6223;SDS011;3145;42.726;23.342;2023-01-29T04:53:03;15.07;;;13.10;;
6223;SDS011;3145;42.726;23.342;2023-01-29T04:55:37;13.97;;;12.60;;
6223;SDS011;3145;42.726;23.342;2023-01-29T04:58:10;15.93;;;12.60;;
6223;SDS011;3145;42.726;23.342;2023-01-29T05:00:43;14.87;;;13.30;;
6223;SDS011;3145;42.726;23.342;2023-01-29T05:03:13;14.53;;;13.03;;
6223;SDS011;3145;42.726;23.342;2023-01-29T05:05:43;13.47;;;12.13;;
6223;SDS011;3145;42.726;23.342;2023-01-29T05:08:13;14.07;;;12.20;;
6223;SDS011;3145;42.726;23.342;2023-01-29T05:10:44;12.80;;;11.57;;
6223;SDS011;3145;42.726;23.342;2023-01-29T05:13:12;13.87;;;12.43;;
6223;SDS011;3145;42.726;23.342;2023-01-29T05:15:41;12.97;;;11.63;;
6223;SDS011;3145;42.726;23.342;2023-01-29T05:18:12;14.37;;;12.33;;
6223;SDS011;3145;42.726;23.342;2023-01-29T05:20:39;12.97;;;11.73;;
6223;SDS011;3145;42.726;23.342;2023-01-29T05:23:10;13.43;;;11.43;;
6223;SDS011;3145;42.726;23.342;2023-01-29T05:25:41;12.63;;;11.43;;
6223;SDS011;3145;42.726;23.342;2023-01-29T05:28:08;12.53;;;11.27;;
6223;SDS011;3145;42.726;23.342;2023-01-29T05:30:40;12.97;;;11.63;;
6223;SDS011;3145;42.726;23.342;2023-01-29T05:33:11;13.63;;;11.80;;
6223;SDS011;3145;42.726;23.342;2023-01-29T05:35:41;12.30;;;11.00;;
6223;SDS011;3145;42.726;23.342;2023-01-29T05:38:09;13.60;;;11.83;;
6223;SDS011;3145;42.726;23.342;2023-01-29T05:40:36;12.60;;;11.30;;
6223;SDS011;3145;42.726;23.342;2023-01-29T05:43:03;13.20;;;11.87;;
6223;SDS011;3145;42.726;23.342;2023-01-29T05:45:31;13.73;;;12.27;;
6223;SDS011;3145;42.726;23.342;2023-01-29T05:47:58;16.97;;;13.37;;
6223;SDS011;3145;42.726;23.342;2023-01-29T05:50:25;14.57;;;12.63;;
6223;SDS011;3145;42.726;23.342;2023-01-29T05:52:56;13.33;;;11.93;;
6223;SDS011;3145;42.726;23.342;2023-01-29T05:55:24;14.27;;;12.47;;
6223;SDS011;3145;42.726;23.342;2023-01-29T05:57:53;14.60;;;12.43;;
6223;SDS011;3145;42.726;23.342;2023-01-29T06:00:20;13.93;;;12.43;;
6223;SDS011;3145;42.726;23.342;2023-01-29T06:02:47;15.20;;;13.50;;
6223;SDS011;3145;42.726;23.342;2023-01-29T06:05:13;16.13;;;14.53;;
6223;SDS011;3145;42.726;23.342;2023-01-29T06:07:40;21.47;;;16.77;;
6223;SDS011;3145;42.726;23.342;2023-01-29T06:10:10;20.23;;;15.33;;
6223;SDS011;3145;42.726;23.342;2023-01-29T06:12:38;14.93;;;13.33;;
6223;SDS011;3145;42.726;23.342;2023-01-29T06:15:05;16.60;;;14.60;;
6223;SDS011;3145;42.726;23.342;2023-01-29T06:17:33;18.73;;;15.47;;
6223;SDS011;3145;42.726;23.342;2023-01-29T06:19:59;16.83;;;15.03;;
6223;SDS011;3145;42.726;23.342;2023-01-29T06:22:26;21.90;;;16.07;;
6223;SDS011;3145;42.726;23.342;2023-01-29T06:24:53;16.10;;;14.50;;
6223;SDS011;3145;42.726;23.342;2023-01-29T06:27:19;18.27;;;14.97;;
6223;SDS011;3145;42.726;23.342;2023-01-29T06:29:48;17.33;;;14.90;;
6223;SDS011;3145;42.726;23.342;2023-01-29T06:32:14;15.77;;;14.17;;
6223;SDS011;3145;42.726;23.342;2023-01-29T06:34:41;16.20;;;14.43;;
6223;SDS011;3145;42.726;23.342;2023-01-29T06:37:08;17.23;;;14.83;;
6223;SDS011;3145;42.726;23.342;2023-01-29T06:39:34;16.93;;;14.67;;
6223;SDS011;3145;42.726;23.342;2023-01-29T06:42:01;19.87;;;14.97;;
6223;SDS011;3145;42.726;23.342;2023-01-29T06:44:28;20.73;;;14.97;;
6223;SDS011;3145;42.726;23.342;2023-01-29T06:46:56;19.63;;;14.57;;
6223;SDS011;3145;42.726;23.342;2023-01-29T06:49:23;17.67;;;14.70;;
6223;SDS011;3145;42.726;23.342;2023-01-29T06:51:49;17.37;;;14.93;;
6223;SDS011;3145;42.726;23.342;2023-01-29T06:54:16;20.07;;;14.13;;
6223;SDS011;3145;42.726;23.342;2023-01-29T06:56:43;23.20;;;15.20;;
6223;SDS011;3145;42.726;23.342;2023-01-29T06:59:09;22.70;;;15.87;;
6223;SDS011;3145;42.726;23.342;2023-01-29T07:01:37;28.63;;;18.30;;
6223;SDS011;3145;42.726;23.342;2023-01-29T07:04:07;20.47;;;15.97;;
6223;SDS011;3145;42.726;23.342;2023-01-29T07:06:34;18.23;;;15.20;;
6223;SDS011;3145;42.726;23.342;2023-01-29T07:09:01;17.67;;;14.93;;
6223;SDS011;3145;42.726;23.342;2023-01-29T07:11:28;21.07;;;16.93;;
6223;SDS011;3145;42.726;23.342;2023-01-29T07:13:54;17.87;;;14.80;;
6223;SDS011;3145;42.726;23.342;2023-01-29T07:16:21;19.13;;;14.70;;
6223;SDS011;3145;42.726;23.342;2023-01-29T07:18:49;16.83;;;14.37;;
6223;SDS011;3145;42.726;23.342;2023-01-29T07:21:17;18.40;;;15.17;;
6223;SDS011;3145;42.726;23.342;2023-01-29T07:23:43;16.53;;;14.33;;
6223;SDS011;3145;42.726;23.342;2023-01-29T07:26:10;19.70;;;15.07;;
6223;SDS011;3145;42.726;23.342;2023-01-29T07:28:37;21.20;;;16.20;;
6223;SDS011;3145;42.726;23.342;2023-01-29T07:31:04;19.07;;;16.97;;
6223;SDS011;3145;42.726;23.342;2023-01-29T07:33:32;19.77;;;15.13;;
6223;SDS011;3145;42.726;23.342;2023-01-29T07:35:59;19.00;;;14.53;;
6223;SDS011;3145;42.726;23.342;2023-01-29T07:38:27;21.17;;;16.23;;
6223;SDS011;3145;42.726;23.342;2023-01-29T07:40:54;21.50;;;16.00;;
6223;SDS011;3145;42.726;23.342;2023-01-29T07:43:21;20.10;;;15.80;;
6223;SDS011;3145;42.726;23.342;2023-01-29T07:45:49;20.60;;;15.60;;
6223;SDS011;3145;42.726;23.342;2023-01-29T07:48:15;21.70;;;16.03;;
6223;SDS011;3145;42.726;23.342;2023-01-29T07:50:42;23.90;;;16.87;;
6223;SDS011;3145;42.726;23.342;2023-01-29T07:53:10;30.50;;;21.47;;
6223;SDS011;3145;42.726;23.342;2023-01-29T07:55:40;21.07;;;17.10;;
6223;SDS011;3145;42.726;23.342;2023-01-29T07:58:09;24.70;;;19.10;;
6223;SDS011;3145;42.726;23.342;2023-01-29T08:00:36;21.83;;;16.97;;
6223;SDS011;3145;42.726;23.342;2023-01-29T08:03:03;23.23;;;16.97;;
6223;SDS011;3145;42.726;23.342;2023-01-29T08:05:31;24.87;;;18.83;;
6223;SDS011;3145;42.726;23.342;2023-01-29T08:07:58;23.13;;;17.93;;
6223;SDS011;3145;42.726;23.342;2023-01-29T08:10:25;20.73;;;18.13;;
6223;SDS011;3145;42.726;23.342;2023-01-29T08:12:54;20.50;;;15.97;;
6223;SDS011;3145;42.726;23.342;2023-01-29T08:15:21;21.50;;;16.63;;
6223;SDS011;3145;42.726;23.342;2023-01-29T08:17:49;22.93;;;15.03;;
6223;SDS011;3145;42.726;23.342;2023-01-29T08:20:16;20.03;;;15.67;;
6223;SDS011;3145;42.726;23.342;2023-01-29T08:22:44;17.57;;;14.53;;
6223;SDS011;3145;42.726;23.342;2023-01-29T08:25:11;22.83;;;17.77;;
6223;SDS011;3145;42.726;23.342;2023-01-29T08:27:38;21.03;;;16.47;;
6223;SDS011;3145;42.726;23.342;2023-01-29T08:30:07;23.43;;;17.20;;
6223;SDS011;3145;42.726;23.342;2023-01-29T08:32:35;20.73;;;16.03;;
6223;SDS011;3145;42.726;23.342;2023-01-29T08:35:02;22.53;;;17.13;;
6223;SDS011;3145;42.726;23.342;2023-01-29T08:37:29;27.53;;;20.53;;
6223;SDS011;3145;42.726;23.342;2023-01-29T08:39:56;25.73;;;20.40;;
6223;SDS011;3145;42.726;23.342;2023-01-29T08:42:22;20.13;;;16.40;;
6223;SDS011;3145;42.726;23.342;2023-01-29T08:44:49;19.33;;;16.07;;
6223;SDS011;3145;42.726;23.342;2023-01-29T08:47:17;22.17;;;17.10;;
6223;SDS011;3145;42.726;23.342;2023-01-29T08:49:44;25.43;;;19.87;;
6223;SDS011;3145;42.726;23.342;2023-01-29T08:52:11;21.93;;;17.97;;
6223;SDS011;3145;42.726;23.342;2023-01-29T08:54:38;22.07;;;16.87;;
6223;SDS011;3145;42.726;23.342;2023-01-29T08:57:04;20.80;;;16.93;;
6223;SDS011;3145;42.726;23.342;2023-01-29T08:59:31;26.37;;;18.73;;
6223;SDS011;3145;42.726;23.342;2023-01-29T09:01:58;31.07;;;19.27;;
6223;SDS011;3145;42.726;23.342;2023-01-29T09:04:26;29.20;;;20.70;;
6223;SDS011;3145;42.726;23.342;2023-01-29T09:06:52;21.40;;;17.27;;
6223;SDS011;3145;42.726;23.342;2023-01-29T09:09:19;20.83;;;17.50;;
6223;SDS011;3145;42.726;23.342;2023-01-29T09:11:46;27.83;;;20.23;;
6223;SDS011;3145;42.726;23.342;2023-01-29T09:14:12;19.47;;;15.67;;
6223;SDS011;3145;42.726;23.342;2023-01-29T09:16:39;20.03;;;16.00;;
6223;SDS011;3145;42.726;23.342;2023-01-29T09:19:06;19.60;;;16.67;;
6223;SDS011;3145;42.726;23.342;2023-01-29T09:21:34;32.57;;;20.47;;
6223;SDS011;3145;42.726;23.342;2023-01-29T09:24:01;23.37;;;15.50;;
6223;SDS011;3145;42.726;23.342;2023-01-29T09:26:28;22.93;;;17.40;;
6223;SDS011;3145;42.726;23.342;2023-01-29T09:28:54;27.87;;;17.40;;
6223;SDS011;3145;42.726;23.342;2023-01-29T09:31:21;25.77;;;17.00;;
6223;SDS011;3145;42.726;23.342;2023-01-29T09:33:48;22.13;;;16.53;;
6223;SDS011;3145;42.726;23.342;2023-01-29T09:36:15;28.33;;;17.37;;
6223;SDS011;3145;42.726;23.342;2023-01-29T09:38:43;22.23;;;17.00;;
6223;SDS011;3145;42.726;23.342;2023-01-29T09:41:14;22.37;;;17.33;;
6223;SDS011;3145;42.726;23.342;2023-01-29T09:43:52;39.97;;;22.47;;
6223;SDS011;3145;42.726;23.342;2023-01-29T09:46:24;29.37;;;18.57;;
6223;SDS011;3145;42.726;23.342;2023-01-29T09:48:59;34.47;;;18.07;;
6223;SDS011;3145;42.726;23.342;2023-01-29T09:51:30;26.13;;;18.80;;
6223;SDS011;3145;42.726;23.342;2023-01-29T09:54:08;23.77;;;17.83;;
6223;SDS011;3145;42.726;23.342;2023-01-29T09:56:42;26.43;;;19.73;;
6223;SDS011;3145;42.726;23.342;2023-01-29T09:59:11;24.97;;;16.37;;
6223;SDS011;3145;42.726;23.342;2023-01-29T10:01:41;25.37;;;17.87;;
6223;SDS011;3145;42.726;23.342;2023-01-29T10:04:18;32.00;;;21.10;;
6223;SDS011;3145;42.726;23.342;2023-01-29T10:07:04;30.40;;;19.23;;
6223;SDS011;3145;42.726;23.342;2023-01-29T10:09:48;22.03;;;17.10;;
6223;SDS011;3145;42.726;23.342;2023-01-29T10:12:40;33.20;;;21.70;;
6223;SDS011;3145;42.726;23.342;2023-01-29T10:15:21;37.30;;;22.60;;
6223;SDS011;3145;42.726;23.342;2023-01-29T10:18:01;29.57;;;18.63;;
6223;SDS011;3145;42.726;23.342;2023-01-29T10:20:46;25.93;;;17.80;;
6223;SDS011;3145;42.726;23.342;2023-01-29T10:23:21;38.27;;;21.07;;
6223;SDS011;3145;42.726;23.342;2023-01-29T10:25:53;25.87;;;18.23;;
6223;SDS011;3145;42.726;23.342;2023-01-29T10:28:23;28.60;;;18.93;;
6223;SDS011;3145;42.726;23.342;2023-01-29T10:30:55;27.73;;;17.77;;
6223;SDS011;3145;42.726;23.342;2023-01-29T10:33:26;24.17;;;17.33;;
6223;SDS011;3145;42.726;23.342;2023-01-29T10:35:59;24.27;;;17.53;;
6223;SDS011;3145;42.726;23.342;2023-01-29T10:38:39;25.83;;;18.30;;
6223;SDS011;3145;42.726;23.342;2023-01-29T10:41:27;30.20;;;18.23;;
6223;SDS011;3145;42.726;23.342;2023-01-29T10:44:09;22.20;;;17.83;;
6223;SDS011;3145;42.726;23.342;2023-01-29T10:46:54;23.47;;;18.10;;
6223;SDS011;3145;42.726;23.342;2023-01-29T10:49:36;21.67;;;16.03;;
6223;SDS011;3145;42.726;23.342;2023-01-29T10:52:23;24.07;;;16.80;;
6223;SDS011;3145;42.726;23.342;2023-01-29T10:55:02;24.73;;;18.03;;
6223;SDS011;3145;42.726;23.342;2023-01-29T10:57:48;28.03;;;19.20;;
6223;SDS011;3145;42.726;23.342;2023-01-29T11:00:25;27.70;;;17.90;;
6223;SDS011;3145;42.726;23.342;2023-01-29T11:02:56;47.27;;;22.87;;
6223;SDS011;3145;42.726;23.342;2023-01-29T11:05:24;38.23;;;24.10;;
6223;SDS011;3145;42.726;23.342;2023-01-29T11:08:00;27.00;;;19.10;;
6223;SDS011;3145;42.726;23.342;2023-01-29T11:10:31;29.03;;;19.33;;
6223;SDS011;3145;42.726;23.342;2023-01-29T11:13:02;30.80;;;18.97;;
6223;SDS011;3145;42.726;23.342;2023-01-29T11:15:31;27.43;;;18.33;;
6223;SDS011;3145;42.726;23.342;2023-01-29T11:18:05;29.20;;;19.67;;
6223;SDS011;3145;42.726;23.342;2023-01-29T11:20:38;30.27;;;19.30;;
6223;SDS011;3145;42.726;23.342;2023-01-29T11:23:18;26.67;;;18.80;;
6223;SDS011;3145;42.726;23.342;2023-01-29T11:25:50;29.90;;;18.53;;
6223;SDS011;3145;42.726;23.342;2023-01-29T11:31:17;25.87;;;18.27;;
6223;SDS011;3145;42.726;23.342;2023-01-29T11:33:46;26.60;;;18.60;;
6223;SDS011;3145;42.726;23.342;2023-01-29T11:36:19;29.07;;;19.90;;
6223;SDS011;3145;42.726;23.342;2023-01-29T11:38:53;27.43;;;19.93;;
6223;SDS011;3145;42.726;23.342;2023-01-29T11:41:41;29.23;;;19.40;;
6223;SDS011;3145;42.726;23.342;2023-01-29T11:44:27;31.37;;;21.00;;
6223;SDS011;3145;42.726;23.342;2023-01-29T11:46:56;30.40;;;19.03;;
6223;SDS011;3145;42.726;23.342;2023-01-29T11:49:35;29.30;;;19.00;;
6223;SDS011;3145;42.726;23.342;2023-01-29T11:52:03;37.17;;;20.93;;
6223;SDS011;3145;42.726;23.342;2023-01-29T11:54:33;31.53;;;21.33;;
6223;SDS011;3145;42.726;23.342;2023-01-29T11:57:03;26.17;;;18.03;;
6223;SDS011;3145;42.726;23.342;2023-01-29T11:59:35;26.07;;;16.57;;
6223;SDS011;3145;42.726;23.342;2023-01-29T12:02:13;26.93;;;18.73;;
6223;SDS011;3145;42.726;23.342;2023-01-29T12:04:47;35.63;;;23.20;;
6223;SDS011;3145;42.726;23.342;2023-01-29T12:07:15;27.73;;;18.73;;
6223;SDS011;3145;42.726;23.342;2023-01-29T12:09:47;23.97;;;18.83;;
6223;SDS011;3145;42.726;23.342;2023-01-29T12:12:26;29.93;;;19.77;;
6223;SDS011;3145;42.726;23.342;2023-01-29T12:17:52;27.20;;;20.43;;
6223;SDS011;3145;42.726;23.342;2023-01-29T12:20:25;37.17;;;23.63;;
6223;SDS011;3145;42.726;23.342;2023-01-29T12:22:58;33.70;;;23.00;;
6223;SDS011;3145;42.726;23.342;2023-01-29T12:25:34;27.77;;;19.97;;
6223;SDS011;3145;42.726;23.342;2023-01-29T12:28:07;28.93;;;20.10;;
6223;SDS011;3145;42.726;23.342;2023-01-29T12:30:49;25.87;;;18.23;;
6223;SDS011;3145;42.726;23.342;2023-01-29T12:33:35;35.33;;;20.03;;
6223;SDS011;3145;42.726;23.342;2023-01-29T12:36:08;34.33;;;22.53;;
6223;SDS011;3145;42.726;23.342;2023-01-29T12:38:39;30.60;;;21.17;;
6223;SDS011;3145;42.726;23.342;2023-01-29T12:41:11;30.83;;;19.80;;
6223;SDS011;3145;42.726;23.342;2023-01-29T12:43:51;24.90;;;18.80;;
6223;SDS011;3145;42.726;23.342;2023-01-29T12:46:23;30.47;;;17.97;;
6223;SDS011;3145;42.726;23.342;2023-01-29T12:48:54;26.97;;;18.87;;
6223;SDS011;3145;42.726;23.342;2023-01-29T12:51:25;25.07;;;19.37;;
6223;SDS011;3145;42.726;23.342;2023-01-29T12:53:59;25.33;;;17.10;;
6223;SDS011;3145;42.726;23.342;2023-01-29T12:56:31;25.90;;;18.27;;
6223;SDS011;3145;42.726;23.342;2023-01-29T12:59:03;27.00;;;19.17;;
6223;SDS011;3145;42.726;23.342;2023-01-29T13:01:42;27.17;;;17.67;;
6223;SDS011;3145;42.726;23.342;2023-01-29T13:04:13;23.37;;;17.83;;
6223;SDS011;3145;42.726;23.342;2023-01-29T13:06:45;23.87;;;16.33;;
6223;SDS011;3145;42.726;23.342;2023-01-29T13:09:18;23.13;;;17.07;;
6223;SDS011;3145;42.726;23.342;2023-01-29T13:11:49;26.73;;;19.27;;
6223;SDS011;3145;42.726;23.342;2023-01-29T13:14:20;22.30;;;18.13;;
6223;SDS011;3145;42.726;23.342;2023-01-29T13:16:52;27.07;;;20.63;;
6223;SDS011;3145;42.726;23.342;2023-01-29T13:19:28;26.23;;;19.83;;
6223;SDS011;3145;42.726;23.342;2023-01-29T13:21:58;23.67;;;17.60;;
6223;SDS011;3145;42.726;23.342;2023-01-29T13:24:31;27.27;;;18.67;;
6223;SDS011;3145;42.726;23.342;2023-01-29T13:27:01;23.33;;;17.13;;
6223;SDS011;3145;42.726;23.342;2023-01-29T13:29:29;22.10;;;16.33;;
6223;SDS011;3145;42.726;23.342;2023-01-29T13:31:58;27.37;;;18.60;;
6223;SDS011;3145;42.726;23.342;2023-01-29T13:34:27;23.30;;;17.80;;
6223;SDS011;3145;42.726;23.342;2023-01-29T13:36:57;22.60;;;16.93;;
6223;SDS011;3145;42.726;23.342;2023-01-29T13:39:27;25.60;;;19.03;;
6223;SDS011;3145;42.726;23.342;2023-01-29T13:41:57;32.23;;;19.87;;
6223;SDS011;3145;42.726;23.342;2023-01-29T13:44:25;24.87;;;18.27;;
6223;SDS011;3145;42.726;23.342;2023-01-29T13:46:55;26.83;;;18.70;;
6223;SDS011;3145;42.726;23.342;2023-01-29T13:49:30;24.77;;;16.67;;
6223;SDS011;3145;42.726;23.342;2023-01-29T13:52:13;24.73;;;17.37;;
6223;SDS011;3145;42.726;23.342;2023-01-29T13:54:48;30.07;;;17.93;;
6223;SDS011;3145;42.726;23.342;2023-01-29T14:03:40;26.57;;;16.67;;
6223;SDS011;3145;42.726;23.342;2023-01-29T14:06:09;23.90;;;16.40;;
6223;SDS011;3145;42.726;23.342;2023-01-29T14:08:36;27.43;;;18.43;;
6223;SDS011;3145;42.726;23.342;2023-01-29T14:13:59;29.57;;;19.10;;
6223;SDS011;3145;42.726;23.342;2023-01-29T14:16:35;31.27;;;19.57;;
6223;SDS011;3145;42.726;23.342;2023-01-29T14:19:03;35.50;;;20.97;;
6223;SDS011;3145;42.726;23.342;2023-01-29T14:21:32;28.67;;;20.30;;
6223;SDS011;3145;42.726;23.342;2023-01-29T14:24:07;33.60;;;19.80;;
6223;SDS011;3145;42.726;23.342;2023-01-29T14:26:40;36.80;;;21.50;;
6223;SDS011;3145;42.726;23.342;2023-01-29T14:29:16;34.50;;;21.00;;
6223;SDS011;3145;42.726;23.342;2023-01-29T14:31:46;29.53;;;21.00;;
6223;SDS011;3145;42.726;23.342;2023-01-29T14:34:20;32.87;;;21.10;;
6223;SDS011;3145;42.726;23.342;2023-01-29T14:36:51;33.63;;;20.70;;
6223;SDS011;3145;42.726;23.342;2023-01-29T14:39:29;32.87;;;20.67;;
6223;SDS011;3145;42.726;23.342;2023-01-29T14:41:59;32.97;;;22.50;;
6223;SDS011;3145;42.726;23.342;2023-01-29T14:50:41;37.03;;;22.80;;
6223;SDS011;3145;42.726;23.342;2023-01-29T14:53:13;43.87;;;24.93;;
6223;SDS011;3145;42.726;23.342;2023-01-29T14:55:47;28.87;;;19.20;;
6223;SDS011;3145;42.726;23.342;2023-01-29T14:58:18;34.17;;;21.77;;
6223;SDS011;3145;42.726;23.342;2023-01-29T15:00:51;26.03;;;18.37;;
6223;SDS011;3145;42.726;23.342;2023-01-29T15:03:24;33.40;;;21.30;;
6223;SDS011;3145;42.726;23.342;2023-01-29T15:06:00;36.50;;;20.87;;
6223;SDS011;3145;42.726;23.342;2023-01-29T15:08:31;33.03;;;23.60;;
6223;SDS011;3145;42.726;23.342;2023-01-29T15:11:06;34.43;;;21.90;;
6223;SDS011;3145;42.726;23.342;2023-01-29T15:13:55;31.77;;;21.97;;
6223;SDS011;3145;42.726;23.342;2023-01-29T15:16:29;32.47;;;20.43;;
6223;SDS011;3145;42.726;23.342;2023-01-29T15:19:06;36.43;;;24.10;;
6223;SDS011;3145;42.726;23.342;2023-01-29T15:21:45;31.97;;;21.17;;
6223;SDS011;3145;42.726;23.342;2023-01-29T15:24:27;36.93;;;22.03;;
6223;SDS011;3145;42.726;23.342;2023-01-29T15:26:54;45.60;;;22.80;;
6223;SDS011;3145;42.726;23.342;2023-01-29T15:29:22;42.13;;;27.03;;